Terminal Aerodrome Forecast
Issued by NWS

Home | Current Version | Previous Version | Text Only | Print | Product List | Glossary On
Versions: 1 2 3 4 5 6 7 8 9 10 11 12 13
000
FTUS42 KFFC 232326
TAFRYY
TAF
KRYY 232326Z 2400/2424 14004KT P6SM FEW060 SCT250
     FM240800 19005KT P6SM VCSH BKN025
     FM241500 19007KT P6SM BKN035
     FM242000 20010G15KT P6SM BKN050=

USA.gov is the U.S. government's official web portal to all federal, state and local government web resources and services.